createdAt,value
2019-06-15T00:02:18.080Z,21.99
2019-06-15T00:04:48.623Z,21.97
2019-06-15T00:07:18.551Z,21.93
2019-06-15T00:09:48.322Z,21.91
2019-06-15T00:12:18.960Z,21.89
2019-06-15T00:14:49.066Z,21.84
2019-06-15T00:17:18.999Z,21.79
2019-06-15T00:19:48.885Z,21.80
2019-06-15T00:22:18.644Z,21.76
2019-06-15T00:24:48.480Z,21.67
2019-06-15T00:27:18.682Z,21.64
2019-06-15T00:29:49.208Z,21.69
2019-06-15T00:32:19.066Z,21.66
2019-06-15T00:34:48.859Z,21.64
2019-06-15T00:37:18.718Z,21.59
2019-06-15T00:39:48.477Z,21.57
2019-06-15T00:42:18.406Z,21.55
2019-06-15T00:44:48.268Z,21.55
2019-06-15T00:47:18.411Z,21.53
2019-06-15T00:49:48.830Z,21.49
2019-06-15T00:52:18.742Z,21.49
2019-06-15T00:54:50.682Z,21.43
2019-06-15T00:57:20.805Z,21.43
2019-06-15T00:59:50.853Z,21.32
2019-06-15T01:02:21.044Z,21.38
2019-06-15T01:04:51.223Z,21.39
2019-06-15T01:07:21.108Z,21.38
2019-06-15T01:09:51.009Z,21.36
2019-06-15T01:12:21.254Z,21.32
2019-06-15T01:14:51.109Z,21.36
2019-06-15T01:17:21.402Z,21.35
2019-06-15T01:19:51.689Z,21.32
2019-06-15T01:22:21.578Z,21.32
2019-06-15T01:25:04.855Z,21.32
2019-06-15T01:27:23.682Z,21.32
2019-06-15T01:29:54.112Z,21.30
2019-06-15T01:32:24.032Z,21.27
2019-06-15T01:34:54.267Z,21.26
2019-06-15T01:37:24.182Z,21.26
2019-06-15T01:39:54.159Z,21.26
2019-06-15T01:42:24.106Z,21.25
2019-06-15T01:44:54.116Z,21.23
2019-06-15T01:47:24.025Z,21.23
2019-06-15T01:49:53.875Z,21.19
2019-06-15T01:52:24.458Z,21.19
2019-06-15T01:54:54.398Z,21.22
2019-06-15T01:57:24.322Z,21.20
2019-06-15T01:59:54.193Z,21.16
2019-06-15T02:02:24.133Z,21.19
2019-06-15T02:04:54.249Z,21.18
2019-06-15T02:07:24.163Z,21.15
2019-06-15T02:09:54.629Z,21.14
2019-06-15T02:12:25.096Z,21.12
2019-06-15T02:14:55.130Z,21.10
2019-06-15T02:17:25.250Z,21.07
2019-06-15T02:19:55.236Z,21.06
2019-06-15T02:22:25.068Z,21.02
2019-06-15T02:24:56.364Z,21.02
2019-06-15T02:27:27.565Z,20.95
2019-06-15T02:29:57.360Z,20.95
2019-06-15T02:32:27.223Z,20.99
2019-06-15T02:34:57.781Z,20.97
2019-06-15T02:37:28.370Z,20.97
2019-06-15T02:39:58.257Z,20.98
2019-06-15T02:42:28.500Z,20.96
2019-06-15T02:44:58.661Z,20.93
2019-06-15T02:47:29.252Z,20.93
2019-06-15T02:49:59.232Z,20.92
2019-06-15T02:52:29.586Z,20.94
2019-06-15T02:54:59.774Z,20.94
2019-06-15T02:57:30.874Z,20.95
2019-06-15T03:00:00.992Z,20.96
2019-06-15T03:02:32.321Z,20.96
2019-06-15T03:05:02.496Z,20.96
2019-06-15T03:07:32.759Z,20.95
2019-06-15T03:10:03.200Z,20.95
2019-06-15T03:12:33.052Z,20.95
2019-06-15T03:15:03.030Z,20.94
2019-06-15T03:17:33.167Z,20.93
2019-06-15T03:20:03.230Z,20.91
2019-06-15T03:22:33.185Z,20.90
2019-06-15T03:25:03.142Z,20.90
2019-06-15T03:27:33.707Z,20.91
2019-06-15T03:30:03.861Z,20.90
2019-06-15T03:32:33.792Z,20.90
2019-06-15T03:35:03.667Z,20.87
2019-06-15T03:37:33.825Z,20.86
2019-06-15T03:40:04.408Z,20.84
2019-06-15T03:42:34.342Z,20.83
2019-06-15T03:45:04.546Z,20.83
2019-06-15T03:47:34.762Z,20.85
2019-06-15T03:50:05.186Z,20.85
2019-06-15T03:52:35.124Z,20.78
2019-06-15T03:55:06.217Z,20.78
2019-06-15T03:57:36.856Z,20.72
2019-06-15T04:00:21.027Z,20.72
2019-06-15T04:02:50.872Z,20.68
2019-06-15T04:05:20.658Z,20.61
2019-06-15T04:07:50.642Z,20.56
2019-06-15T04:10:20.858Z,20.56
2019-06-15T04:12:50.829Z,20.55
2019-06-15T04:15:21.029Z,20.52
2019-06-15T04:17:51.151Z,20.47
2019-06-15T04:20:21.085Z,20.41
2019-06-15T04:22:51.326Z,20.41
2019-06-15T04:25:21.339Z,20.37
2019-06-15T04:27:51.408Z,20.34
2019-06-15T04:30:22.798Z,20.27
2019-06-15T04:32:53.115Z,20.27
2019-06-15T04:35:23.428Z,20.26
2019-06-15T04:37:53.449Z,20.24
2019-06-15T04:40:23.491Z,20.24
2019-06-15T04:42:53.534Z,20.25
2019-06-15T04:45:23.566Z,20.22
2019-06-15T04:47:53.609Z,20.22
2019-06-15T04:50:24.336Z,20.22
2019-06-15T04:52:54.391Z,20.24
2019-06-15T04:55:24.388Z,20.23
2019-06-15T04:57:55.009Z,20.22
2019-06-15T05:00:25.106Z,20.22
2019-06-15T05:02:56.208Z,20.20
2019-06-15T05:05:26.226Z,20.19
2019-06-15T05:07:56.637Z,20.12
2019-06-15T05:10:26.701Z,20.12
2019-06-15T05:12:57.064Z,20.16
2019-06-15T05:15:27.101Z,20.12
2019-06-15T05:17:57.824Z,20.12
2019-06-15T05:20:27.854Z,20.10
2019-06-15T05:22:58.170Z,20.10
2019-06-15T05:25:28.194Z,20.08
2019-06-15T05:27:58.587Z,20.06
2019-06-15T05:30:28.657Z,20.05
2019-06-15T05:32:58.669Z,20.03
2019-06-15T05:35:29.049Z,20.01
2019-06-15T05:37:59.077Z,20.01
2019-06-15T05:40:29.227Z,19.95
2019-06-15T05:42:59.175Z,19.95
2019-06-15T05:45:29.107Z,19.94
2019-06-15T05:47:58.969Z,19.95
2019-06-15T05:50:28.939Z,19.97
2019-06-15T05:52:58.800Z,19.97
2019-06-15T05:55:29.281Z,20.00
2019-06-15T05:57:59.154Z,20.05
2019-06-15T06:00:29.102Z,20.08
2019-06-15T06:02:58.921Z,20.12
2019-06-15T06:05:29.214Z,20.13
2019-06-15T06:07:59.224Z,20.14
2019-06-15T06:10:29.914Z,20.14
2019-06-15T06:13:00.131Z,20.15
2019-06-15T06:15:30.010Z,20.16
2019-06-15T06:18:00.279Z,20.18
2019-06-15T06:20:30.444Z,20.20
2019-06-15T06:23:01.381Z,20.22
2019-06-15T06:25:31.349Z,20.24
2019-06-15T06:28:01.700Z,20.25
2019-06-15T06:30:31.669Z,20.25
2019-06-15T06:33:01.871Z,20.21
2019-06-15T06:35:31.739Z,20.21
2019-06-15T06:38:02.387Z,20.23
2019-06-15T06:40:32.575Z,20.26
2019-06-15T06:43:03.106Z,20.26
2019-06-15T06:45:33.398Z,20.26
2019-06-15T06:48:03.787Z,20.22
2019-06-15T06:51:01.037Z,20.22
2019-06-15T06:53:37.877Z,20.22
2019-06-15T06:56:16.347Z,20.24
2019-06-15T06:58:54.242Z,20.21
2019-06-15T07:01:29.791Z,20.22
2019-06-15T07:07:04.885Z,20.29
2019-06-15T07:09:37.322Z,20.30
2019-06-15T07:12:28.530Z,20.31
2019-06-15T07:15:04.863Z,20.33
2019-06-15T07:17:38.906Z,20.34
2019-06-15T07:20:18.371Z,20.40
2019-06-15T07:22:53.690Z,20.41
2019-06-15T07:25:43.523Z,20.53
2019-06-15T07:28:35.298Z,20.53
2019-06-15T07:31:09.635Z,20.56
2019-06-15T07:33:43.324Z,20.58
2019-06-15T07:36:17.109Z,20.62
2019-06-15T07:38:48.324Z,20.66
2019-06-15T07:41:23.219Z,20.75
2019-06-15T07:44:16.275Z,20.79
2019-06-15T07:46:55.442Z,20.79
2019-06-15T07:49:27.753Z,20.81
2019-06-15T07:52:17.867Z,20.81
2019-06-15T07:55:08.444Z,20.78
2019-06-15T07:57:52.995Z,20.79
2019-06-15T08:00:33.458Z,20.77
2019-06-15T08:03:24.453Z,20.72
2019-06-15T08:05:55.610Z,20.68
2019-06-15T08:08:27.469Z,20.61
2019-06-15T08:10:59.593Z,20.54
2019-06-15T08:13:32.826Z,20.50
2019-06-15T08:16:25.986Z,20.46
2019-06-15T08:18:58.760Z,20.41
2019-06-15T08:21:32.851Z,20.40
2019-06-15T08:24:06.144Z,20.39
2019-06-15T08:27:06.235Z,20.37
2019-06-15T08:29:47.174Z,20.32
2019-06-15T08:32:24.532Z,20.28
2019-06-15T08:35:15.769Z,20.29
2019-06-15T08:38:42.338Z,20.29
2019-06-15T08:45:09.937Z,20.38
2019-06-15T08:54:01.252Z,20.65
2019-06-15T08:56:46.836Z,20.65
2019-06-15T08:59:45.615Z,20.63
2019-06-15T09:02:42.721Z,20.60
2019-06-15T09:06:00.872Z,20.52
2019-06-15T09:08:39.751Z,20.48
2019-06-15T09:14:36.416Z,20.39
2019-06-15T09:20:42.385Z,20.27
2019-06-15T09:23:36.718Z,20.18
2019-06-15T09:26:16.313Z,20.11
2019-06-15T09:28:53.291Z,20.11
2019-06-15T09:31:33.348Z,20.09
2019-06-15T09:34:18.788Z,20.08
2019-06-15T09:37:06.045Z,20.08
2019-06-15T09:39:45.429Z,20.09
2019-06-15T09:42:17.403Z,20.14
2019-06-15T09:45:07.643Z,20.23
2019-06-15T09:51:13.675Z,20.41
2019-06-15T09:53:55.880Z,20.52
2019-06-15T09:56:27.438Z,20.55
2019-06-15T09:58:57.636Z,20.63
2019-06-15T10:01:27.645Z,20.68
2019-06-15T10:03:57.663Z,20.73
2019-06-15T10:06:28.979Z,20.78
2019-06-15T10:08:58.847Z,20.83
2019-06-15T10:11:28.809Z,20.86
2019-06-15T10:13:58.733Z,20.86
2019-06-15T10:16:28.531Z,20.88
2019-06-15T10:18:58.387Z,20.89
2019-06-15T10:21:28.360Z,20.93
2019-06-15T10:23:58.515Z,20.98
2019-06-15T10:26:28.388Z,20.97
2019-06-15T10:28:58.652Z,21.03
2019-06-15T10:31:28.602Z,21.02
2019-06-15T10:33:59.531Z,21.02
2019-06-15T10:36:29.479Z,21.06
2019-06-15T10:38:59.356Z,21.11
2019-06-15T10:41:29.215Z,21.16
2019-06-15T10:43:59.373Z,21.23
2019-06-15T10:46:29.234Z,21.33
2019-06-15T10:48:59.167Z,21.43
2019-06-15T10:51:29.308Z,21.58
2019-06-15T10:54:00.006Z,21.79
2019-06-15T10:56:29.823Z,22.01
2019-06-15T10:58:59.751Z,22.42
2019-06-15T11:01:29.557Z,22.42
2019-06-15T11:03:59.439Z,22.62
2019-06-15T11:06:29.785Z,22.62
2019-06-15T11:08:59.840Z,22.62
2019-06-15T11:11:31.031Z,22.57
2019-06-15T11:14:01.099Z,22.59
2019-06-15T11:16:31.042Z,22.58
2019-06-15T11:19:01.013Z,22.47
2019-06-15T11:21:30.975Z,22.47
2019-06-15T11:24:00.908Z,22.45
2019-06-15T11:26:31.203Z,22.45
2019-06-15T11:29:01.161Z,22.49
2019-06-15T11:31:31.149Z,22.59
2019-06-15T11:34:01.023Z,22.66
2019-06-15T11:36:30.989Z,22.83
2019-06-15T11:39:00.848Z,23.09
2019-06-15T11:41:32.401Z,23.56
2019-06-15T11:44:03.406Z,23.61
2019-06-15T11:46:33.322Z,23.69
2019-06-15T11:49:03.256Z,23.69
2019-06-15T11:51:33.818Z,23.62
2019-06-15T11:54:03.748Z,23.46
2019-06-15T11:56:34.072Z,23.05
2019-06-15T11:59:04.087Z,23.05
2019-06-15T12:01:34.069Z,22.84
2019-06-15T12:04:03.996Z,22.49
2019-06-15T12:06:34.238Z,22.49
2019-06-15T12:09:05.234Z,22.41
2019-06-15T12:11:35.245Z,22.42
2019-06-15T12:14:05.681Z,22.42
2019-06-15T12:16:36.709Z,22.43
2019-06-15T12:19:06.666Z,22.46
2019-06-15T12:21:36.900Z,22.47
2019-06-15T12:24:07.341Z,22.55
2019-06-15T12:26:37.536Z,22.79
2019-06-15T12:29:08.177Z,23.07
2019-06-15T12:31:38.130Z,23.44
2019-06-15T12:34:08.031Z,23.70
2019-06-15T12:36:37.967Z,24.03
2019-06-15T12:39:07.903Z,24.28
2019-06-15T12:41:38.239Z,24.43
2019-06-15T12:44:08.516Z,24.50
2019-06-15T12:46:38.388Z,24.52
2019-06-15T12:49:08.716Z,24.39
2019-06-15T12:51:40.863Z,24.22
2019-06-15T12:54:10.600Z,24.06
2019-06-15T12:56:40.604Z,23.89
2019-06-15T12:59:11.436Z,23.80
2019-06-15T13:01:41.778Z,23.76
2019-06-15T13:04:11.670Z,23.71
2019-06-15T13:06:41.663Z,23.66
2019-06-15T13:09:11.560Z,23.67
2019-06-15T13:11:41.491Z,23.66
2019-06-15T13:14:11.742Z,23.58
2019-06-15T13:16:41.711Z,23.51
2019-06-15T13:19:12.321Z,23.45
2019-06-15T13:21:42.371Z,23.38
2019-06-15T13:24:12.604Z,23.52
2019-06-15T13:26:42.473Z,24.19
2019-06-15T13:29:12.307Z,24.19
2019-06-15T13:31:42.276Z,24.81
2019-06-15T13:34:12.222Z,24.81
2019-06-15T13:36:41.993Z,25.16
2019-06-15T13:39:11.858Z,25.37
2019-06-15T13:41:41.849Z,25.29
2019-06-15T13:44:11.695Z,25.34
2019-06-15T13:46:41.876Z,25.40
2019-06-15T13:49:11.856Z,25.47
2019-06-15T13:51:41.755Z,25.64
2019-06-15T13:54:11.689Z,25.70
2019-06-15T13:56:41.586Z,25.64
2019-06-15T13:59:11.870Z,25.42
2019-06-15T14:01:42.072Z,25.29
2019-06-15T14:04:12.197Z,25.06
2019-06-15T14:06:42.045Z,24.81
2019-06-15T14:09:11.867Z,24.56
2019-06-15T14:11:41.666Z,24.73
2019-06-15T14:14:11.511Z,24.97
2019-06-15T14:16:41.351Z,25.32
2019-06-15T14:19:11.214Z,25.61
2019-06-15T14:21:41.788Z,25.72
2019-06-15T14:24:11.800Z,25.63
2019-06-15T14:26:41.712Z,25.39
2019-06-15T14:29:11.554Z,25.44
2019-06-15T14:31:50.332Z,25.67
2019-06-15T14:34:13.213Z,25.93
2019-06-15T14:36:43.388Z,26.14
2019-06-15T14:39:13.375Z,26.31
2019-06-15T14:41:46.826Z,26.49
2019-06-15T14:44:15.309Z,26.67
2019-06-15T14:46:45.260Z,26.77
2019-06-15T14:49:15.116Z,26.81
2019-06-15T14:51:44.998Z,26.62
2019-06-15T14:54:16.245Z,26.61
2019-06-15T14:56:47.151Z,26.65
2019-06-15T14:59:17.277Z,26.72
2019-06-15T15:01:47.385Z,26.73
2019-06-15T15:04:17.330Z,26.72
2019-06-15T15:06:47.322Z,26.77
2019-06-15T15:09:17.589Z,26.87
2019-06-15T15:11:47.527Z,26.96
2019-06-15T15:14:17.503Z,27.03
2019-06-15T15:16:47.432Z,26.98
2019-06-15T15:19:17.943Z,26.99
2019-06-15T15:21:49.474Z,27.01
2019-06-15T15:24:19.386Z,26.99
2019-06-15T15:26:49.556Z,27.00
2019-06-15T15:29:20.135Z,27.04
2019-06-15T15:31:50.354Z,27.05
2019-06-15T15:34:20.296Z,27.05
2019-06-15T15:36:50.129Z,27.03
2019-06-15T15:39:20.070Z,27.08
2019-06-15T15:41:49.994Z,27.10
2019-06-15T15:44:20.326Z,27.16
2019-06-15T15:46:50.251Z,27.19
2019-06-15T15:49:20.240Z,27.27
2019-06-15T15:51:50.184Z,27.34
2019-06-15T15:54:20.097Z,27.42
2019-06-15T15:56:50.014Z,27.43
2019-06-15T15:59:19.986Z,27.47
2019-06-15T16:01:49.971Z,27.48
2019-06-15T16:04:20.071Z,27.45
2019-06-15T16:06:50.494Z,27.46
2019-06-15T16:09:20.360Z,27.43
2019-06-15T16:11:50.657Z,27.39
2019-06-15T16:14:20.549Z,27.38
2019-06-15T16:16:50.403Z,27.38
2019-06-15T16:19:20.380Z,27.34
2019-06-15T16:21:50.303Z,27.28
2019-06-15T16:24:20.209Z,27.24
2019-06-15T16:26:51.909Z,27.19
2019-06-15T16:29:21.794Z,27.16
2019-06-15T16:31:51.998Z,27.14
2019-06-15T16:34:22.865Z,27.11
2019-06-15T16:36:52.828Z,27.07
2019-06-15T16:39:22.698Z,27.09
2019-06-15T16:41:52.472Z,27.12
2019-06-15T16:44:22.714Z,27.09
2019-06-15T16:46:52.742Z,27.08
2019-06-15T16:49:22.685Z,27.08
2019-06-15T16:51:52.849Z,26.99
2019-06-15T16:54:22.786Z,26.91
2019-06-15T16:56:52.793Z,26.87
2019-06-15T16:59:22.975Z,26.77
2019-06-15T17:01:55.888Z,26.61
2019-06-15T17:04:26.807Z,26.44
2019-06-15T17:06:56.786Z,26.35
2019-06-15T17:09:27.573Z,26.20
2019-06-15T17:11:57.735Z,26.10
2019-06-15T17:14:27.955Z,25.99
2019-06-15T17:16:57.954Z,26.00
2019-06-15T17:19:27.751Z,26.03
2019-06-15T17:22:13.801Z,26.06
2019-06-15T17:24:29.380Z,26.05
2019-06-15T17:26:59.604Z,26.04
2019-06-15T17:29:29.921Z,26.00
2019-06-15T17:31:59.843Z,25.96
2019-06-15T17:34:29.613Z,25.92
2019-06-15T17:36:59.466Z,25.88
2019-06-15T17:39:29.822Z,25.83
2019-06-15T17:41:59.899Z,25.80
2019-06-15T17:44:29.705Z,25.77
2019-06-15T17:47:00.623Z,25.78
2019-06-15T17:49:30.554Z,25.81
2019-06-15T17:52:00.480Z,25.82
2019-06-15T17:54:31.814Z,25.83
2019-06-15T17:57:01.779Z,25.82
2019-06-15T17:59:32.195Z,25.79
2019-06-15T18:02:02.050Z,25.73
2019-06-15T18:04:33.356Z,25.66
2019-06-15T18:07:03.312Z,25.56
2019-06-15T18:09:33.232Z,25.47
2019-06-15T18:12:03.189Z,25.42
2019-06-15T18:14:36.557Z,25.39
2019-06-15T18:17:07.246Z,25.29
2019-06-15T18:19:37.162Z,25.22
2019-06-15T18:22:07.346Z,25.17
2019-06-15T18:24:37.368Z,25.10
2019-06-15T18:27:09.667Z,25.04
2019-06-15T18:29:39.272Z,24.99
2019-06-15T18:32:09.196Z,24.93
2019-06-15T18:34:39.274Z,24.86
2019-06-15T18:37:09.214Z,24.80
2019-06-15T18:39:39.736Z,24.76
2019-06-15T18:42:09.634Z,24.71
2019-06-15T18:44:39.502Z,24.68
2019-06-15T18:47:09.701Z,24.63
2019-06-15T18:49:39.483Z,24.58
2019-06-15T18:52:09.353Z,24.52
2019-06-15T18:54:39.551Z,24.46
2019-06-15T18:57:09.469Z,24.41
2019-06-15T18:59:39.389Z,24.37
2019-06-15T19:02:09.613Z,24.34
2019-06-15T19:04:39.476Z,24.30
2019-06-15T19:07:09.614Z,24.25
2019-06-15T19:09:39.478Z,24.19
2019-06-15T19:12:09.717Z,24.14
2019-06-15T19:14:40.044Z,24.08
2019-06-15T19:17:09.974Z,24.02
2019-06-15T19:19:40.120Z,23.97
2019-06-15T19:22:10.070Z,23.92
2019-06-15T19:24:39.960Z,23.88
2019-06-15T19:27:09.933Z,23.85
2019-06-15T19:29:40.189Z,23.80
2019-06-15T19:32:10.396Z,23.76
2019-06-15T19:34:47.352Z,23.71
2019-06-15T19:37:12.957Z,23.69
2019-06-15T19:39:42.854Z,23.66
2019-06-15T19:42:12.797Z,23.64
2019-06-15T19:44:42.770Z,23.62
2019-06-15T19:47:12.633Z,23.59
2019-06-15T19:49:42.879Z,23.58
2019-06-15T19:52:13.202Z,23.56
2019-06-15T19:54:42.989Z,23.55
2019-06-15T19:57:12.873Z,23.54
2019-06-15T19:59:42.821Z,23.51
2019-06-15T20:02:13.084Z,23.49
2019-06-15T20:04:57.128Z,23.47
2019-06-15T20:07:16.901Z,23.45
2019-06-15T20:09:46.446Z,23.43
2019-06-15T20:12:21.550Z,23.40
2019-06-15T20:14:48.236Z,23.40
2019-06-15T20:17:18.170Z,23.39
2019-06-15T20:19:48.139Z,23.38
2019-06-15T20:22:18.087Z,23.37
2019-06-15T20:24:48.048Z,23.36
2019-06-15T20:27:19.026Z,23.33
2019-06-15T20:29:48.904Z,23.30
2019-06-15T20:32:19.185Z,23.29
2019-06-15T20:34:49.464Z,23.26
2019-06-15T20:37:19.338Z,23.21
2019-06-15T20:39:49.247Z,23.18
2019-06-15T20:42:19.090Z,23.14
2019-06-15T20:44:48.948Z,23.11
2019-06-15T20:47:18.732Z,23.08
2019-06-15T20:49:48.540Z,23.06
2019-06-15T20:52:18.496Z,23.04
2019-06-15T20:54:48.719Z,23.04
2019-06-15T20:57:18.688Z,23.02
2019-06-15T20:59:48.652Z,23.02
2019-06-15T21:02:18.495Z,23.00
2019-06-15T21:04:48.578Z,22.99
2019-06-15T21:07:18.531Z,22.97
2019-06-15T21:09:48.415Z,22.96
2019-06-15T21:12:18.375Z,22.93
2019-06-15T21:14:48.255Z,22.91
2019-06-15T21:17:18.136Z,22.89
2019-06-15T21:19:47.994Z,22.90
2019-06-15T21:22:17.836Z,22.87
2019-06-15T21:24:47.610Z,22.85
2019-06-15T21:27:18.574Z,22.84
2019-06-15T21:29:48.410Z,22.79
2019-06-15T21:32:18.322Z,22.76
2019-06-15T21:34:48.506Z,22.73
2019-06-15T21:37:18.555Z,22.71
2019-06-15T21:39:48.528Z,22.68
2019-06-15T21:42:19.543Z,22.63
2019-06-15T21:44:49.607Z,22.60
2019-06-15T21:47:19.872Z,22.56
2019-06-15T21:49:49.745Z,22.54
2019-06-15T21:52:19.529Z,22.52
2019-06-15T21:54:49.537Z,22.48
2019-06-15T21:57:19.799Z,22.48
2019-06-15T21:59:49.880Z,22.44
2019-06-15T22:02:20.400Z,22.38
2019-06-15T22:04:50.756Z,22.41
2019-06-15T22:07:21.037Z,22.39
2019-06-15T22:09:51.658Z,22.36
2019-06-15T22:12:21.784Z,22.34
2019-06-15T22:14:51.825Z,22.34
2019-06-15T22:17:21.950Z,22.33
2019-06-15T22:19:52.044Z,22.34
2019-06-15T22:22:22.161Z,22.34
2019-06-15T22:24:52.401Z,22.34
2019-06-15T22:27:22.511Z,22.31
2019-06-15T22:29:52.689Z,22.30
2019-06-15T22:32:22.717Z,22.28
2019-06-15T22:34:52.777Z,22.25
2019-06-15T22:37:22.874Z,22.20
2019-06-15T22:39:53.043Z,22.20
2019-06-15T22:42:23.174Z,22.17
2019-06-15T22:44:53.174Z,22.14
2019-06-15T22:47:23.255Z,22.12
2019-06-15T22:49:53.359Z,22.08
2019-06-15T22:52:23.621Z,22.06
2019-06-15T22:54:53.724Z,21.94
2019-06-15T22:57:26.042Z,21.98
2019-06-15T22:59:56.720Z,21.85
2019-06-15T23:02:26.904Z,21.93
2019-06-15T23:04:57.007Z,21.89
2019-06-15T23:07:27.127Z,21.86
2019-06-15T23:09:57.444Z,21.85
2019-06-15T23:12:27.534Z,21.82
2019-06-15T23:14:57.652Z,21.79
2019-06-15T23:17:27.778Z,21.76
2019-06-15T23:19:57.940Z,21.69
2019-06-15T23:22:28.046Z,21.67
2019-06-15T23:24:59.047Z,21.64
2019-06-15T23:27:29.154Z,21.64
2019-06-15T23:29:59.220Z,21.60
2019-06-15T23:32:29.270Z,21.53
2019-06-15T23:34:59.462Z,21.57
2019-06-15T23:37:29.643Z,21.48
2019-06-15T23:40:17.356Z,21.53
2019-06-15T23:42:47.736Z,21.50
2019-06-15T23:45:18.803Z,21.47
2019-06-15T23:47:51.966Z,21.47
2019-06-15T23:50:22.351Z,21.44
2019-06-15T23:52:52.410Z,21.42
2019-06-15T23:55:22.544Z,21.37
2019-06-15T23:57:52.721Z,21.37
